createdAt,value
2022-11-28T15:06:21.042Z,65.69
2022-11-28T15:08:57.099Z,66.23
2022-11-28T15:12:03.772Z,66.59
2022-11-28T15:14:33.397Z,67.27
2022-11-28T15:17:07.072Z,66.95
2022-11-28T15:19:42.685Z,66.98
2022-11-28T15:22:47.005Z,65.26
2022-11-28T15:25:40.830Z,64.43
2022-11-28T15:28:18.296Z,65.43
2022-11-28T15:30:48.568Z,65.82
2022-11-28T15:33:16.393Z,65.74
2022-11-28T15:36:04.723Z,64.24
2022-11-28T15:38:32.839Z,65.09
2022-11-28T15:41:00.915Z,64.99
2022-11-28T15:43:31.700Z,65.06
2022-11-28T15:46:01.771Z,64.28
2022-11-28T15:48:38.997Z,64.25
2022-11-28T15:51:09.066Z,64.04
2022-11-28T15:53:42.501Z,63.53
2022-11-28T15:56:15.820Z,62.62
2022-11-28T15:58:52.747Z,62.88
2022-11-28T16:01:28.408Z,62.85
2022-11-28T16:04:18.874Z,61.12
2022-11-28T16:06:52.473Z,62.73
2022-11-28T16:09:20.268Z,63.08
2022-11-28T16:11:53.215Z,62.31
2022-11-28T16:14:29.369Z,62.96
2022-11-28T16:16:58.915Z,62.79
2022-11-28T16:19:31.338Z,62.65
2022-11-28T16:22:01.804Z,62.46
2022-11-28T16:24:38.579Z,62.65
2022-11-28T16:27:07.029Z,62.93
2022-11-28T16:29:36.204Z,62.54
2022-11-28T16:32:27.202Z,62.07
2022-11-28T16:34:55.799Z,62.36
2022-11-28T16:37:25.943Z,62.23
2022-11-28T16:40:17.228Z,61.41
2022-11-28T16:42:53.448Z,61.71
2022-11-28T16:45:30.810Z,62.06
2022-11-28T16:48:08.910Z,61.77
2022-11-28T16:50:37.859Z,62.21
2022-11-28T16:53:05.701Z,62.20
2022-11-28T16:55:33.841Z,62.24
2022-11-28T16:58:12.345Z,61.43
2022-11-28T17:00:44.205Z,61.85
2022-11-28T17:03:41.403Z,61.64
2022-11-28T17:06:17.010Z,61.69
2022-11-28T17:08:45.496Z,61.85
2022-11-28T17:11:15.798Z,61.72
2022-11-28T17:13:43.455Z,61.81
2022-11-28T17:16:19.664Z,61.67
2022-11-28T17:18:47.972Z,61.73
2022-11-28T17:21:22.007Z,61.80
2022-11-28T17:23:49.869Z,61.80
2022-11-28T17:26:17.490Z,61.85
2022-11-28T17:28:45.120Z,61.73
2022-11-28T17:31:14.869Z,62.06
2022-11-28T17:33:44.776Z,61.77
2022-11-28T17:36:13.342Z,62.08
2022-11-28T17:38:41.213Z,61.91
2022-11-28T17:41:13.909Z,61.76
2022-11-28T17:43:42.863Z,62.11
2022-11-28T17:46:10.654Z,62.06
2022-11-28T17:48:38.348Z,62.04
2022-11-28T17:51:06.770Z,62.24
2022-11-28T17:53:34.943Z,62.13
2022-11-28T17:56:02.817Z,62.31
2022-11-28T17:58:30.639Z,62.00
2022-11-28T18:01:00.725Z,62.69
2022-11-28T18:03:29.355Z,62.58
2022-11-28T18:05:56.976Z,62.52
2022-11-28T18:08:24.835Z,62.89
2022-11-28T18:11:03.556Z,62.44
2022-11-28T18:13:31.659Z,62.94
2022-11-28T18:15:59.469Z,63.02
2022-11-28T18:18:28.199Z,63.15
2022-11-28T18:20:56.167Z,63.04
2022-11-28T18:23:23.867Z,63.25
2022-11-28T18:25:52.205Z,63.46
2022-11-28T18:28:22.336Z,63.38
2022-11-28T18:30:50.169Z,63.58
2022-11-28T18:33:18.124Z,63.63
2022-11-28T18:35:45.954Z,63.53
2022-11-28T18:38:13.991Z,63.40
2022-11-28T18:40:42.258Z,63.66
2022-11-28T18:43:09.910Z,63.75
2022-11-28T18:45:37.790Z,63.48
2022-11-28T18:48:06.229Z,63.51
2022-11-28T18:50:35.348Z,63.59
2022-11-28T18:53:03.188Z,63.30
2022-11-28T18:55:30.874Z,63.48
2022-11-28T18:57:58.634Z,63.55
2022-11-28T19:00:26.371Z,63.40
2022-11-28T19:02:55.158Z,62.63
2022-11-28T19:05:23.695Z,63.13
2022-11-28T19:07:51.891Z,62.81
2022-11-28T19:10:20.813Z,63.23
2022-11-28T19:12:48.459Z,63.29
2022-11-28T19:15:16.119Z,62.79
2022-11-28T19:17:43.884Z,63.11
2022-11-28T19:20:12.247Z,63.12
2022-11-28T19:22:39.854Z,63.35
2022-11-28T19:25:08.294Z,63.32
2022-11-28T19:27:35.986Z,63.31
2022-11-28T19:30:04.853Z,63.20
2022-11-28T19:32:32.784Z,63.36
2022-11-28T19:35:00.590Z,63.12
2022-11-28T19:37:29.576Z,63.60
2022-11-28T19:40:01.156Z,63.40
2022-11-28T19:42:30.498Z,63.52
2022-11-28T19:44:58.981Z,63.32
2022-11-28T19:47:26.793Z,63.52
2022-11-28T19:49:54.493Z,63.85
2022-11-28T19:52:22.936Z,64.09
2022-11-28T19:54:51.186Z,64.14
2022-11-28T19:57:20.864Z,64.04
2022-11-28T19:59:48.753Z,64.55
2022-11-28T20:02:17.872Z,64.58
2022-11-28T20:04:45.896Z,64.38
2022-11-28T20:07:14.039Z,64.66
2022-11-28T20:09:42.542Z,64.62
2022-11-28T20:12:10.495Z,64.63
2022-11-28T20:14:38.575Z,64.61
2022-11-28T20:17:07.156Z,64.55
2022-11-28T20:19:34.868Z,64.39
2022-11-28T20:22:02.716Z,64.39
2022-11-28T20:24:30.950Z,64.12
2022-11-28T20:26:58.692Z,64.19
2022-11-28T20:29:28.092Z,64.15
2022-11-28T20:31:57.473Z,64.24
2022-11-28T20:34:28.225Z,64.16
2022-11-28T20:36:55.928Z,64.47
2022-11-28T20:39:24.349Z,64.35
2022-11-28T20:41:55.138Z,64.46
2022-11-28T20:44:22.943Z,64.25
2022-11-28T20:46:50.724Z,64.32
2022-11-28T20:49:18.784Z,64.39
2022-11-28T20:51:47.519Z,64.50
2022-11-28T20:54:15.226Z,64.68
2022-11-28T20:57:19.578Z,64.86
2022-11-28T20:59:32.439Z,64.98
2022-11-28T21:02:00.071Z,65.27
2022-11-28T21:04:27.822Z,65.23
2022-11-28T21:06:55.409Z,65.76
2022-11-28T21:09:23.250Z,65.71
2022-11-28T21:11:57.439Z,66.02
2022-11-28T21:14:26.891Z,66.41
2022-11-28T21:16:54.817Z,66.84
2022-11-28T21:19:22.630Z,67.45
2022-11-28T21:21:50.366Z,67.54
2022-11-28T21:24:18.081Z,67.75
2022-11-28T21:26:51.244Z,68.27
